createdAt,value
2023-01-13T00:00:30.396Z,97560.00
2023-01-13T00:02:58.201Z,97561.00
2023-01-13T00:05:26.802Z,97555.00
2023-01-13T00:07:54.601Z,97562.00
2023-01-13T00:10:22.328Z,97558.00
2023-01-13T00:12:50.089Z,97551.00
2023-01-13T00:15:17.987Z,97545.00
2023-01-13T00:17:49.164Z,97546.00
2023-01-13T00:20:17.934Z,97540.00
2023-01-13T00:22:45.791Z,97545.00
2023-01-13T00:25:14.030Z,97535.00
2023-01-13T00:27:42.024Z,97536.00
2023-01-13T00:30:10.718Z,97538.00
2023-01-13T00:32:38.448Z,97529.00
2023-01-13T00:35:08.581Z,97523.00
2023-01-13T00:37:38.139Z,97526.00
2023-01-13T00:40:07.063Z,97525.00
2023-01-13T00:42:52.314Z,97515.00
2023-01-13T00:45:20.042Z,97515.00
2023-01-13T00:47:47.850Z,97513.00
2023-01-13T00:50:20.986Z,97516.00
2023-01-13T00:52:48.734Z,97503.00
2023-01-13T00:55:16.861Z,97502.00
2023-01-13T00:57:44.681Z,97502.00
2023-01-13T01:00:13.641Z,97502.00
2023-01-13T01:02:41.473Z,97503.00
2023-01-13T01:05:09.964Z,97509.00
2023-01-13T01:07:39.055Z,97500.00
2023-01-13T01:10:07.681Z,97500.00
2023-01-13T01:12:35.816Z,97494.00
2023-01-13T01:15:06.106Z,97492.00
2023-01-13T01:17:33.870Z,97497.00
2023-01-13T01:20:01.743Z,97495.00
2023-01-13T01:22:29.492Z,97495.00
2023-01-13T01:24:58.944Z,97498.00
2023-01-13T01:27:26.656Z,97494.00
2023-01-13T01:29:54.371Z,97496.00
2023-01-13T01:32:22.125Z,97498.00
2023-01-13T01:34:49.843Z,97501.00
2023-01-13T01:37:17.596Z,97510.00
2023-01-13T01:39:45.705Z,97499.00
2023-01-13T01:42:35.019Z,97492.00
2023-01-13T01:45:10.643Z,97484.00
2023-01-13T01:47:38.590Z,97488.00
2023-01-13T01:50:07.115Z,97482.00
2023-01-13T01:52:38.355Z,97482.00
2023-01-13T01:55:09.829Z,97471.00
2023-01-13T01:57:45.764Z,97463.00
2023-01-13T02:00:14.517Z,97461.00
2023-01-13T02:02:44.483Z,97463.00
2023-01-13T02:05:12.710Z,97452.00
2023-01-13T02:07:42.724Z,97449.00
2023-01-13T02:10:13.513Z,97468.00
2023-01-13T02:12:45.177Z,97460.00
2023-01-13T02:15:15.356Z,97447.00
2023-01-13T02:18:08.641Z,97454.00
2023-01-13T02:20:47.111Z,97454.00
2023-01-13T02:24:13.790Z,97456.00
2023-01-13T02:27:25.125Z,97450.00
2023-01-13T02:30:23.483Z,97437.00
2023-01-13T02:33:02.285Z,97450.00
2023-01-13T02:35:38.135Z,97439.00
2023-01-13T02:38:07.111Z,97438.00
2023-01-13T02:40:39.669Z,97431.00
2023-01-13T02:43:31.115Z,97422.00
2023-01-13T02:46:06.338Z,97420.00
2023-01-13T02:48:35.559Z,97421.00
2023-01-13T02:51:06.937Z,97414.00
2023-01-13T02:53:38.095Z,97422.00
2023-01-13T02:56:08.301Z,97417.00
2023-01-13T02:58:38.508Z,97418.00
2023-01-13T03:01:07.695Z,97415.00
2023-01-13T03:03:36.628Z,97413.00
2023-01-13T03:06:15.101Z,97409.00
2023-01-13T03:08:47.725Z,97410.00
2023-01-13T03:11:17.057Z,97402.00
2023-01-13T03:14:12.122Z,97397.00
2023-01-13T03:16:53.540Z,97407.00
2023-01-13T03:19:33.713Z,97397.00
2023-01-13T03:22:13.086Z,97392.00
2023-01-13T03:24:44.012Z,97400.00
2023-01-13T03:27:16.693Z,97402.00
2023-01-13T03:29:47.979Z,97395.00
2023-01-13T03:32:22.602Z,97410.00
2023-01-13T03:34:52.871Z,97400.00
2023-01-13T03:37:24.809Z,97398.00
2023-01-13T03:39:57.481Z,97399.00
2023-01-13T03:42:27.070Z,97390.00
2023-01-13T03:44:57.240Z,97388.00
2023-01-13T03:47:31.637Z,97393.00
2023-01-13T03:50:03.624Z,97394.00
2023-01-13T03:52:34.729Z,97386.00
2023-01-13T03:55:07.042Z,97389.00
2023-01-13T03:57:38.492Z,97381.00
2023-01-13T04:00:10.627Z,97376.00
2023-01-13T04:02:48.534Z,97373.00
2023-01-13T04:05:16.657Z,97373.00
2023-01-13T04:07:50.978Z,97381.00
2023-01-13T04:10:22.354Z,97383.00
2023-01-13T04:13:04.177Z,97382.00
2023-01-13T04:15:38.425Z,97379.00
2023-01-13T04:18:16.511Z,97383.00
2023-01-13T04:20:45.578Z,97383.00
2023-01-13T04:23:13.910Z,97376.00
2023-01-13T04:25:42.104Z,97387.00
2023-01-13T04:28:10.376Z,97395.00
2023-01-13T04:30:38.428Z,97394.00
2023-01-13T04:33:06.567Z,97385.00
2023-01-13T04:35:36.281Z,97385.00
2023-01-13T04:38:08.947Z,97388.00
2023-01-13T04:40:36.963Z,97384.00
2023-01-13T04:43:04.664Z,97384.00
2023-01-13T04:45:32.886Z,97373.00
2023-01-13T04:48:00.696Z,97387.00
2023-01-13T04:50:28.828Z,97378.00
2023-01-13T04:52:57.898Z,97380.00
2023-01-13T04:55:26.129Z,97381.00
2023-01-13T04:57:54.162Z,97382.00
2023-01-13T05:00:23.932Z,97393.00
2023-01-13T05:02:52.273Z,97394.00
2023-01-13T05:05:20.091Z,97400.00
2023-01-13T05:07:47.724Z,97404.00
2023-01-13T05:10:17.420Z,97399.00
2023-01-13T05:13:02.558Z,97404.00
2023-01-13T05:15:47.805Z,97396.00
2023-01-13T05:18:15.779Z,97398.00
2023-01-13T05:20:43.596Z,97394.00
2023-01-13T05:23:28.978Z,97392.00
2023-01-13T05:25:57.937Z,97393.00
2023-01-13T05:28:25.639Z,97387.00
2023-01-13T05:30:53.453Z,97385.00
2023-01-13T05:33:21.547Z,97382.00
2023-01-13T05:35:49.963Z,97381.00
2023-01-13T05:38:18.555Z,97382.00
2023-01-13T05:41:04.149Z,97385.00
2023-01-13T05:43:34.739Z,97388.00
2023-01-13T05:46:04.625Z,97387.00
2023-01-13T05:48:35.095Z,97386.00
2023-01-13T05:51:03.241Z,97391.00
2023-01-13T05:53:31.375Z,97393.00
2023-01-13T05:55:59.084Z,97389.00
2023-01-13T05:58:28.041Z,97392.00
2023-01-13T06:01:04.473Z,97396.00
2023-01-13T06:03:33.742Z,97386.00
2023-01-13T06:06:02.250Z,97381.00
2023-01-13T06:08:30.361Z,97380.00
2023-01-13T06:10:58.328Z,97372.00
2023-01-13T06:13:26.333Z,97374.00
2023-01-13T06:15:57.604Z,97373.00
2023-01-13T06:18:27.078Z,97380.00
2023-01-13T06:20:54.884Z,97375.00
2023-01-13T06:23:22.730Z,97375.00
2023-01-13T06:25:57.520Z,97374.00
2023-01-13T06:28:25.408Z,97378.00
2023-01-13T06:30:57.414Z,97373.00
2023-01-13T06:33:31.548Z,97373.00
2023-01-13T06:36:02.638Z,97377.00
2023-01-13T06:38:35.273Z,97364.00
2023-01-13T06:41:03.321Z,97372.00
2023-01-13T06:43:30.052Z,97380.00
2023-01-13T06:46:00.126Z,97377.00
2023-01-13T06:48:33.078Z,97377.00
2023-01-13T06:51:01.051Z,97376.00
2023-01-13T06:53:28.707Z,97376.00
2023-01-13T06:55:56.693Z,97376.00
2023-01-13T06:58:27.548Z,97385.00
2023-01-13T07:00:55.249Z,97382.00
2023-01-13T07:03:22.924Z,97385.00
2023-01-13T07:05:56.490Z,97388.00
2023-01-13T07:08:24.808Z,97384.00
2023-01-13T07:10:52.944Z,97383.00
2023-01-13T07:13:38.329Z,97387.00
2023-01-13T07:16:08.056Z,97393.00
2023-01-13T07:18:36.696Z,97390.00
2023-01-13T07:21:07.193Z,97389.00
2023-01-13T07:23:36.841Z,97390.00
2023-01-13T07:26:05.026Z,97388.00
2023-01-13T07:28:33.080Z,97378.00
2023-01-13T07:31:01.764Z,97373.00
2023-01-13T07:33:32.951Z,97376.00
2023-01-13T07:36:03.118Z,97375.00
2023-01-13T07:38:32.875Z,97382.00
2023-01-13T07:41:21.876Z,97374.00
2023-01-13T07:43:48.750Z,97379.00
2023-01-13T07:46:16.817Z,97374.00
2023-01-13T07:48:45.233Z,97383.00
2023-01-13T07:51:13.487Z,97374.00
2023-01-13T07:53:42.503Z,97380.00
2023-01-13T07:56:10.460Z,97384.00
2023-01-13T07:58:39.061Z,97378.00
2023-01-13T08:01:10.296Z,97377.00
2023-01-13T08:03:38.099Z,97375.00
2023-01-13T08:06:06.109Z,97382.00
2023-01-13T08:08:33.980Z,97381.00
2023-01-13T08:11:04.226Z,97384.00
2023-01-13T08:13:32.368Z,97391.00
2023-01-13T08:16:01.906Z,97383.00
2023-01-13T08:18:30.172Z,97389.00
2023-01-13T08:21:03.097Z,97391.00
2023-01-13T08:23:30.891Z,97390.00
2023-01-13T08:26:01.799Z,97386.00
2023-01-13T08:28:31.089Z,97379.00
2023-01-13T08:31:00.866Z,97373.00
2023-01-13T08:33:28.884Z,97379.00
2023-01-13T08:35:56.730Z,97379.00
2023-01-13T08:38:24.994Z,97384.00
2023-01-13T08:40:52.995Z,97378.00
2023-01-13T08:43:20.700Z,97379.00
2023-01-13T08:45:58.221Z,97379.00
2023-01-13T08:48:26.586Z,97386.00
2023-01-13T08:50:54.864Z,97376.00
2023-01-13T08:53:22.589Z,97372.00
2023-01-13T08:55:50.232Z,97381.00
2023-01-13T08:58:18.739Z,97383.00
2023-01-13T09:00:46.863Z,97392.00
2023-01-13T09:03:17.886Z,97389.00
2023-01-13T09:05:46.435Z,97388.00
2023-01-13T09:08:14.356Z,97391.00
2023-01-13T09:10:42.674Z,97392.00
2023-01-13T09:13:13.218Z,97400.00
2023-01-13T09:15:42.355Z,97405.00
2023-01-13T09:18:10.191Z,97402.00
2023-01-13T09:20:39.713Z,97403.00
2023-01-13T09:23:10.270Z,97404.00
2023-01-13T09:25:38.895Z,97418.00
2023-01-13T09:28:08.331Z,97420.00
2023-01-13T09:30:36.406Z,97422.00
2023-01-13T09:33:21.499Z,97419.00
2023-01-13T09:35:50.504Z,97430.00
2023-01-13T09:38:18.165Z,97435.00
2023-01-13T09:40:49.956Z,97448.00
2023-01-13T09:43:51.119Z,97441.00
2023-01-13T09:46:41.721Z,97462.00
2023-01-13T09:49:20.364Z,97465.00
2023-01-13T09:51:56.012Z,97475.00
2023-01-13T09:54:32.055Z,97490.00
2023-01-13T09:57:00.205Z,97492.00
2023-01-13T09:59:30.453Z,97490.00
2023-01-13T10:02:04.993Z,97495.00
2023-01-13T10:04:32.665Z,97510.00
2023-01-13T10:07:03.646Z,97502.00
2023-01-13T10:09:47.337Z,97505.00
2023-01-13T10:12:37.576Z,97521.00
2023-01-13T10:15:06.301Z,97523.00
2023-01-13T10:17:41.041Z,97520.00
2023-01-13T10:20:19.565Z,97505.00
2023-01-13T10:22:55.468Z,97503.00
2023-01-13T10:25:35.897Z,97519.00
2023-01-13T10:28:10.467Z,97524.00
2023-01-13T10:30:40.424Z,97520.00
2023-01-13T10:33:13.315Z,97519.00
2023-01-13T10:36:02.593Z,97525.00
2023-01-13T10:38:38.012Z,97523.00
2023-01-13T10:41:10.965Z,97515.00
2023-01-13T10:43:38.635Z,97510.00
2023-01-13T10:46:11.794Z,97521.00
2023-01-13T10:48:42.693Z,97525.00
2023-01-13T10:51:21.571Z,97502.00
2023-01-13T10:54:02.745Z,97500.00
2023-01-13T10:56:33.197Z,97486.00
2023-01-13T10:59:23.325Z,97486.00
2023-01-13T11:02:01.244Z,97495.00
2023-01-13T11:04:33.365Z,97494.00
2023-01-13T11:07:02.009Z,97497.00
2023-01-13T11:09:33.081Z,97496.00
2023-01-13T11:12:03.065Z,97496.00
2023-01-13T11:14:39.584Z,97492.00
2023-01-13T11:17:35.554Z,97488.00
2023-01-13T11:20:13.604Z,97498.00
2023-01-13T11:22:46.383Z,97487.00
2023-01-13T11:25:20.725Z,97484.00
2023-01-13T11:28:06.147Z,97503.00
2023-01-13T11:30:42.569Z,97497.00
2023-01-13T11:33:28.078Z,97497.00
2023-01-13T11:36:04.580Z,97492.00
2023-01-13T11:38:40.940Z,97497.00
2023-01-13T11:41:21.588Z,97501.00
2023-01-13T11:43:54.860Z,97491.00
2023-01-13T11:46:26.924Z,97495.00
2023-01-13T11:48:56.389Z,97499.00
2023-01-13T11:51:33.188Z,97501.00
2023-01-13T11:54:24.327Z,97512.00
2023-01-13T11:57:17.889Z,97501.00
2023-01-13T12:00:15.437Z,97494.00
2023-01-13T12:02:53.671Z,97500.00
2023-01-13T12:05:30.157Z,97513.00
2023-01-13T12:08:10.113Z,97515.00
2023-01-13T12:10:50.011Z,97516.00
2023-01-13T12:13:29.227Z,97518.00
2023-01-13T12:16:10.790Z,97530.00
2023-01-13T12:19:18.588Z,97533.00
2023-01-13T12:22:04.613Z,97523.00
2023-01-13T12:24:38.289Z,97523.00
2023-01-13T12:27:11.766Z,97530.00
2023-01-13T12:29:41.781Z,97530.00
2023-01-13T12:32:15.876Z,97514.00
2023-01-13T12:34:54.612Z,97515.00
2023-01-13T12:37:30.179Z,97504.00
2023-01-13T12:40:13.118Z,97494.00
2023-01-13T12:43:05.032Z,97503.00
2023-01-13T12:45:34.561Z,97501.00
2023-01-13T12:48:02.693Z,97501.00
2023-01-13T12:50:44.216Z,97510.00
2023-01-13T12:53:35.075Z,97511.00
2023-01-13T12:56:39.724Z,97512.00
2023-01-13T12:59:38.985Z,97512.00
2023-01-13T13:02:37.584Z,97516.00
2023-01-13T13:05:38.657Z,97524.00
2023-01-13T13:08:15.836Z,97521.00
2023-01-13T13:11:00.567Z,97528.00
2023-01-13T13:13:44.089Z,97529.00
2023-01-13T13:16:48.719Z,97532.00
2023-01-13T13:19:44.197Z,97535.00
2023-01-13T13:22:37.445Z,97531.00
2023-01-13T13:25:29.576Z,97536.00
2023-01-13T13:28:19.738Z,97533.00
2023-01-13T13:30:57.944Z,97540.00
2023-01-13T13:33:54.793Z,97545.00
2023-01-13T13:36:41.384Z,97539.00
2023-01-13T13:39:39.786Z,97543.00
2023-01-13T13:42:31.875Z,97551.00
2023-01-13T13:45:19.578Z,97561.00
2023-01-13T13:47:47.447Z,97564.00
2023-01-13T13:50:20.070Z,97560.00
2023-01-13T13:52:57.222Z,97570.00
2023-01-13T13:55:30.110Z,97572.00
2023-01-13T13:58:02.827Z,97583.00
2023-01-13T14:00:32.829Z,97592.00
2023-01-13T14:03:02.933Z,97592.00
2023-01-13T14:05:31.871Z,97590.00
2023-01-13T14:08:05.436Z,97583.00
2023-01-13T14:10:37.028Z,97594.00
2023-01-13T14:13:15.432Z,97586.00
2023-01-13T14:15:43.485Z,97597.00
2023-01-13T14:18:15.023Z,97597.00
2023-01-13T14:20:44.430Z,97596.00
2023-01-13T14:23:21.997Z,97597.00
2023-01-13T14:25:51.594Z,97587.00
2023-01-13T14:28:25.014Z,97590.00
2023-01-13T14:30:53.428Z,97601.00
2023-01-13T14:33:25.183Z,97607.00
2023-01-13T14:36:07.396Z,97610.00
2023-01-13T14:38:36.395Z,97606.00
2023-01-13T14:41:12.744Z,97606.00
2023-01-13T14:43:45.000Z,97604.00
2023-01-13T14:46:14.026Z,97615.00
2023-01-13T14:48:47.038Z,97623.00
2023-01-13T14:51:23.389Z,97625.00
2023-01-13T14:53:52.708Z,97640.00
2023-01-13T14:56:50.637Z,97640.00
2023-01-13T14:59:42.969Z,97647.00
2023-01-13T15:02:38.793Z,97650.00
2023-01-13T15:05:37.244Z,97647.00
2023-01-13T15:08:18.584Z,97647.00
2023-01-13T15:10:50.712Z,97655.00
2023-01-13T15:13:27.865Z,97647.00
2023-01-13T15:15:57.897Z,97670.00
2023-01-13T15:18:26.043Z,97666.00
2023-01-13T15:20:53.806Z,97664.00
2023-01-13T15:23:21.747Z,97659.00
2023-01-13T15:25:50.781Z,97651.00
2023-01-13T15:28:20.649Z,97660.00
2023-01-13T15:30:49.098Z,97668.00
2023-01-13T15:33:17.535Z,97671.00
2023-01-13T15:35:47.751Z,97667.00
2023-01-13T15:38:17.769Z,97668.00
2023-01-13T15:40:46.739Z,97680.00
2023-01-13T15:43:35.339Z,97689.00
2023-01-13T15:46:33.753Z,97694.00
2023-01-13T15:49:08.794Z,97703.00
2023-01-13T15:51:37.051Z,97691.00
2023-01-13T15:54:04.784Z,97700.00
2023-01-13T15:56:36.121Z,97703.00
2023-01-13T15:59:06.299Z,97706.00
2023-01-13T16:01:37.823Z,97701.00
2023-01-13T16:04:05.816Z,97713.00
2023-01-13T16:06:34.546Z,97723.00
2023-01-13T16:09:03.661Z,97728.00
2023-01-13T16:11:31.546Z,97731.00
2023-01-13T16:13:59.445Z,97734.00
2023-01-13T16:16:29.590Z,97742.00
2023-01-13T16:18:57.603Z,97743.00
2023-01-13T16:21:25.624Z,97748.00
2023-01-13T16:23:53.383Z,97758.00
2023-01-13T16:26:23.725Z,97775.00
2023-01-13T16:28:53.333Z,97786.00
2023-01-13T16:31:25.752Z,97786.00
2023-01-13T16:33:54.826Z,97802.00
2023-01-13T16:36:23.075Z,97802.00
2023-01-13T16:38:52.441Z,97810.00
2023-01-13T16:41:21.461Z,97814.00
2023-01-13T16:43:49.469Z,97820.00
2023-01-13T16:46:23.198Z,97829.00
2023-01-13T16:48:52.921Z,97839.00
2023-01-13T16:51:25.691Z,97832.00
2023-01-13T16:53:53.868Z,97831.00
2023-01-13T16:56:25.096Z,97842.00
2023-01-13T16:58:54.273Z,97840.00
2023-01-13T17:01:24.717Z,97840.00
2023-01-13T17:03:56.208Z,97836.00
2023-01-13T17:06:28.509Z,97837.00
2023-01-13T17:09:01.641Z,97840.00
2023-01-13T17:11:29.301Z,97839.00
2023-01-13T17:13:57.061Z,97838.00
2023-01-13T17:16:29.023Z,97850.00
2023-01-13T17:18:56.868Z,97844.00
2023-01-13T17:21:25.973Z,97843.00
2023-01-13T17:23:53.615Z,97851.00
2023-01-13T17:26:31.988Z,97844.00
2023-01-13T17:29:01.255Z,97851.00
2023-01-13T17:31:30.117Z,97852.00
2023-01-13T17:33:58.073Z,97854.00
2023-01-13T17:36:27.112Z,97856.00
2023-01-13T17:38:56.017Z,97855.00
2023-01-13T17:41:23.877Z,97861.00
2023-01-13T17:43:51.623Z,97859.00
2023-01-13T17:46:19.940Z,97856.00
2023-01-13T17:48:48.040Z,97864.00
2023-01-13T17:51:18.321Z,97867.00
2023-01-13T17:53:47.827Z,97865.00
2023-01-13T17:56:16.898Z,97873.00
2023-01-13T17:58:45.434Z,97880.00
2023-01-13T18:01:16.327Z,97887.00
2023-01-13T18:03:44.250Z,97882.00
2023-01-13T18:06:16.111Z,97882.00
2023-01-13T18:08:43.796Z,97880.00
2023-01-13T18:11:12.976Z,97890.00
2023-01-13T18:13:41.181Z,97882.00
2023-01-13T18:16:17.063Z,97884.00
2023-01-13T18:18:46.553Z,97891.00
2023-01-13T18:21:36.912Z,97903.00
2023-01-13T18:24:22.630Z,97902.00
2023-01-13T18:27:09.313Z,97904.00
2023-01-13T18:29:36.939Z,97915.00
2023-01-13T18:32:04.901Z,97917.00
2023-01-13T18:34:33.071Z,97916.00
2023-01-13T18:37:00.704Z,97915.00
2023-01-13T18:39:28.469Z,97915.00
2023-01-13T18:42:15.021Z,97919.00
2023-01-13T18:44:42.884Z,97922.00
2023-01-13T18:47:10.557Z,97925.00
2023-01-13T18:49:38.394Z,97927.00
2023-01-13T18:52:06.440Z,97915.00
2023-01-13T18:54:34.486Z,97934.00
2023-01-13T18:57:03.719Z,97937.00
2023-01-13T18:59:33.149Z,97945.00
2023-01-13T19:02:00.968Z,97953.00
2023-01-13T19:04:28.682Z,97954.00
2023-01-13T19:07:00.898Z,97965.00
2023-01-13T19:09:29.761Z,97962.00
2023-01-13T19:11:58.456Z,97961.00
2023-01-13T19:14:38.177Z,97969.00
2023-01-13T19:17:09.727Z,97969.00
2023-01-13T19:19:41.143Z,97980.00
2023-01-13T19:22:09.296Z,97978.00
2023-01-13T19:24:36.991Z,97965.00
2023-01-13T19:27:04.738Z,97979.00
2023-01-13T19:29:34.036Z,97988.00
2023-01-13T19:32:01.858Z,97990.00
2023-01-13T19:34:29.935Z,97993.00
2023-01-13T19:36:57.607Z,97990.00
2023-01-13T19:39:25.667Z,97988.00
2023-01-13T19:42:10.523Z,97988.00
2023-01-13T19:44:57.165Z,97993.00
2023-01-13T19:47:24.932Z,97990.00
2023-01-13T19:49:52.629Z,97995.00
2023-01-13T19:52:20.298Z,97998.00
2023-01-13T19:54:48.530Z,98004.00
2023-01-13T19:57:16.688Z,98009.00
2023-01-13T19:59:45.691Z,98008.00
2023-01-13T20:02:16.774Z,98001.00
2023-01-13T20:04:45.417Z,98013.00
2023-01-13T20:07:14.635Z,98006.00
2023-01-13T20:09:44.015Z,98022.00
2023-01-13T20:12:14.096Z,98017.00
2023-01-13T20:14:43.430Z,98015.00
2023-01-13T20:17:13.441Z,98017.00
2023-01-13T20:19:41.167Z,98022.00
2023-01-13T20:22:09.045Z,98028.00
2023-01-13T20:24:36.965Z,98024.00
2023-01-13T20:27:05.717Z,98033.00
2023-01-13T20:29:34.011Z,98040.00
2023-01-13T20:32:02.402Z,98031.00
2023-01-13T20:34:31.491Z,98043.00
2023-01-13T20:37:00.222Z,98044.00
2023-01-13T20:39:28.015Z,98043.00
2023-01-13T20:42:13.505Z,98041.00
2023-01-13T20:44:41.378Z,98041.00
2023-01-13T20:47:09.357Z,98040.00
2023-01-13T20:49:38.377Z,98046.00
2023-01-13T20:52:09.632Z,98056.00
2023-01-13T20:54:37.521Z,98046.00
2023-01-13T20:57:05.726Z,98050.00
2023-01-13T20:59:33.396Z,98054.00
2023-01-13T21:02:01.205Z,98052.00
2023-01-13T21:04:29.124Z,98057.00
2023-01-13T21:06:58.270Z,98065.00
2023-01-13T21:09:27.247Z,98064.00
2023-01-13T21:12:12.916Z,98070.00
2023-01-13T21:14:58.482Z,98078.00
2023-01-13T21:17:43.670Z,98067.00
2023-01-13T21:20:13.631Z,98077.00
2023-01-13T21:22:45.646Z,98072.00
2023-01-13T21:25:13.779Z,98074.00
2023-01-13T21:27:41.760Z,98075.00
2023-01-13T21:30:13.237Z,98079.00
2023-01-13T21:32:40.880Z,98076.00
2023-01-13T21:35:09.524Z,98076.00
2023-01-13T21:37:37.561Z,98083.00
2023-01-13T21:40:09.076Z,98087.00
2023-01-13T21:42:54.427Z,98093.00
2023-01-13T21:45:39.808Z,98098.00
2023-01-13T21:48:07.911Z,98096.00
2023-01-13T21:50:35.594Z,98099.00
2023-01-13T21:53:03.226Z,98115.00
2023-01-13T21:55:32.877Z,98112.00
2023-01-13T21:58:07.434Z,98116.00
2023-01-13T22:00:35.144Z,98121.00
2023-01-13T22:03:04.202Z,98121.00
2023-01-13T22:05:32.417Z,98128.00
2023-01-13T22:08:00.034Z,98135.00
2023-01-13T22:10:29.910Z,98139.00
2023-01-13T22:13:00.133Z,98145.00
2023-01-13T22:15:30.573Z,98150.00
2023-01-13T22:17:59.395Z,98151.00
2023-01-13T22:20:27.605Z,98151.00
2023-01-13T22:22:55.217Z,98147.00
2023-01-13T22:25:23.656Z,98164.00
2023-01-13T22:27:52.413Z,98156.00
2023-01-13T22:30:22.209Z,98157.00
2023-01-13T22:32:50.135Z,98158.00
2023-01-13T22:35:17.800Z,98163.00
2023-01-13T22:37:45.436Z,98156.00
2023-01-13T22:40:13.541Z,98157.00
2023-01-13T22:42:42.515Z,98159.00
2023-01-13T22:45:12.168Z,98152.00
2023-01-13T22:47:41.357Z,98155.00
2023-01-13T22:50:12.464Z,98164.00
2023-01-13T22:52:40.461Z,98165.00
2023-01-13T22:55:09.053Z,98160.00
2023-01-13T22:57:47.190Z,98165.00
2023-01-13T23:00:18.842Z,98166.00
2023-01-13T23:02:48.117Z,98173.00
2023-01-13T23:05:15.774Z,98171.00
2023-01-13T23:07:43.427Z,98179.00
2023-01-13T23:10:12.223Z,98176.00
2023-01-13T23:12:39.908Z,98183.00
2023-01-13T23:15:08.322Z,98182.00
2023-01-13T23:17:36.073Z,98186.00
2023-01-13T23:20:05.438Z,98183.00
2023-01-13T23:22:36.017Z,98174.00
2023-01-13T23:25:03.650Z,98185.00
2023-01-13T23:27:31.315Z,98189.00
2023-01-13T23:29:59.006Z,98179.00
2023-01-13T23:32:26.645Z,98184.00
2023-01-13T23:34:54.293Z,98189.00
2023-01-13T23:37:23.327Z,98180.00
2023-01-13T23:39:50.986Z,98191.00
2023-01-13T23:42:18.819Z,98186.00
2023-01-13T23:44:46.488Z,98193.00
2023-01-13T23:47:14.134Z,98189.00
2023-01-13T23:49:41.760Z,98193.00
2023-01-13T23:52:09.413Z,98196.00
2023-01-13T23:54:38.614Z,98202.00
2023-01-13T23:57:06.277Z,98196.00
2023-01-13T23:59:33.909Z,98207.00
